createdAt,value
2018-06-10T00:00:41.318Z,22.40
2018-06-10T00:03:26.122Z,22.19
2018-06-10T00:06:02.664Z,22.16
2018-06-10T00:08:39.611Z,21.94
2018-06-10T00:11:20.400Z,21.81
2018-06-10T00:13:58.600Z,21.76
2018-06-10T00:16:42.662Z,21.82
2018-06-10T00:19:15.133Z,21.67
2018-06-10T00:21:58.144Z,21.62
2018-06-10T00:24:30.167Z,21.61
2018-06-10T00:27:03.939Z,21.63
2018-06-10T00:29:37.450Z,21.76
2018-06-10T00:32:11.960Z,21.71
2018-06-10T00:34:45.665Z,21.85
2018-06-10T00:37:18.535Z,21.90
2018-06-10T00:39:49.766Z,21.96
2018-06-10T00:45:09.356Z,21.98
2018-06-10T00:47:46.278Z,22.17
2018-06-10T00:50:51.231Z,22.06
2018-06-10T00:53:21.671Z,22.03
2018-06-10T00:55:53.678Z,22.11
2018-06-10T00:58:24.791Z,22.35
2018-06-10T01:00:55.404Z,22.46
2018-06-10T01:03:26.138Z,22.46
2018-06-10T01:05:59.475Z,22.49
2018-06-10T01:08:31.006Z,22.55
2018-06-10T01:11:02.435Z,22.57
2018-06-10T01:13:32.926Z,22.65
2018-06-10T01:16:04.650Z,22.53
2018-06-10T01:18:39.372Z,22.54
2018-06-10T01:21:16.602Z,22.67
2018-06-10T01:23:48.141Z,22.62
2018-06-10T01:26:23.944Z,22.44
2018-06-10T01:28:54.352Z,22.36
2018-06-10T01:31:25.660Z,22.40
2018-06-10T01:33:57.823Z,22.59
2018-06-10T01:36:28.965Z,22.73
2018-06-10T01:39:01.158Z,22.83
2018-06-10T01:44:15.307Z,22.89
2018-06-10T01:46:58.428Z,22.88
2018-06-10T01:49:29.163Z,22.95
2018-06-10T01:51:59.790Z,22.97
2018-06-10T01:54:30.311Z,23.02
2018-06-10T01:57:01.207Z,23.09
2018-06-10T01:59:31.771Z,23.14
2018-06-10T02:02:02.553Z,23.14
2018-06-10T02:04:34.708Z,23.20
2018-06-10T02:07:13.110Z,23.18
2018-06-10T02:09:45.165Z,23.08
2018-06-10T02:12:17.188Z,23.08
2018-06-10T02:14:48.223Z,23.17
2018-06-10T02:17:20.462Z,23.15
2018-06-10T02:19:51.997Z,23.13
2018-06-10T02:22:22.955Z,23.15
2018-06-10T02:24:54.610Z,23.19
2018-06-10T02:27:25.573Z,23.13
2018-06-10T02:29:56.730Z,23.11
2018-06-10T02:32:30.155Z,23.16
2018-06-10T02:35:00.408Z,23.17
2018-06-10T02:37:32.478Z,23.18
2018-06-10T02:40:03.027Z,23.15
2018-06-10T02:42:33.915Z,23.07
2018-06-10T02:45:07.938Z,23.09
2018-06-10T02:47:40.323Z,23.17
2018-06-10T02:50:14.269Z,23.16
2018-06-10T02:52:46.636Z,23.13
2018-06-10T02:55:17.459Z,23.14
2018-06-10T02:57:49.128Z,23.21
2018-06-10T03:00:22.217Z,23.19
2018-06-10T03:02:52.664Z,23.16
2018-06-10T03:05:23.054Z,23.18
2018-06-10T03:07:58.898Z,23.19
2018-06-10T03:10:34.174Z,23.15
2018-06-10T03:13:05.533Z,23.17
2018-06-10T03:15:49.202Z,23.08
2018-06-10T03:18:21.274Z,23.09
2018-06-10T03:20:52.432Z,23.06
2018-06-10T03:23:24.224Z,23.09
2018-06-10T03:25:54.605Z,23.03
2018-06-10T03:28:28.644Z,22.93
2018-06-10T03:30:59.448Z,22.93
2018-06-10T03:33:31.130Z,22.92
2018-06-10T03:36:03.011Z,22.97
2018-06-10T03:38:45.978Z,22.91
2018-06-10T03:41:18.243Z,22.85
2018-06-10T03:43:49.196Z,22.97
2018-06-10T03:46:19.580Z,23.04
2018-06-10T03:48:51.856Z,23.02
2018-06-10T03:51:22.083Z,23.04
2018-06-10T03:53:52.943Z,23.08
2018-06-10T03:56:24.270Z,23.11
2018-06-10T03:58:57.690Z,23.19
2018-06-10T04:01:28.833Z,23.29
2018-06-10T04:03:59.209Z,23.34
2018-06-10T04:06:29.589Z,23.31
2018-06-10T04:09:00.316Z,23.29
2018-06-10T04:11:32.314Z,22.93
2018-06-10T04:14:08.049Z,23.31
2018-06-10T04:16:40.931Z,23.34
2018-06-10T04:19:14.086Z,23.35
2018-06-10T04:21:46.022Z,23.28
2018-06-10T04:24:17.910Z,23.19
2018-06-10T04:26:51.280Z,23.18
2018-06-10T04:29:23.130Z,23.19
2018-06-10T04:31:53.800Z,22.99
2018-06-10T04:34:25.275Z,22.96
2018-06-10T04:36:58.829Z,23.08
2018-06-10T04:39:30.465Z,23.04
2018-06-10T04:42:01.196Z,23.06
2018-06-10T04:44:32.409Z,23.12
2018-06-10T04:49:33.637Z,23.15
2018-06-10T04:52:04.818Z,23.25
2018-06-10T04:54:35.940Z,23.28
2018-06-10T04:57:07.532Z,23.27
2018-06-10T04:59:38.052Z,23.32
2018-06-10T05:02:09.498Z,23.46
2018-06-10T05:04:41.086Z,23.58
2018-06-10T05:07:11.677Z,23.62
2018-06-10T05:09:42.502Z,23.52
2018-06-10T05:12:14.018Z,23.41
2018-06-10T05:14:45.061Z,23.37
2018-06-10T05:17:16.721Z,23.26
2018-06-10T05:19:47.020Z,23.37
2018-06-10T05:22:18.344Z,23.53
2018-06-10T05:24:51.982Z,23.62
2018-06-10T05:27:22.610Z,23.59
2018-06-10T05:29:54.526Z,23.64
2018-06-10T05:32:26.725Z,23.64
2018-06-10T05:34:57.075Z,23.56
2018-06-10T05:37:27.661Z,23.45
2018-06-10T05:39:59.345Z,23.37
2018-06-10T05:42:36.537Z,22.56
2018-06-10T05:45:15.158Z,23.52
2018-06-10T05:47:45.666Z,23.72
2018-06-10T05:50:17.304Z,23.91
2018-06-10T05:52:47.840Z,24.07
2018-06-10T05:55:18.368Z,23.41
2018-06-10T05:57:48.999Z,24.18
2018-06-10T06:00:22.501Z,24.16
2018-06-10T06:02:53.874Z,24.11
2018-06-10T06:05:26.041Z,24.14
2018-06-10T06:07:57.486Z,24.27
2018-06-10T06:10:32.439Z,24.49
2018-06-10T06:13:04.496Z,24.72
2018-06-10T06:15:37.441Z,24.86
2018-06-10T06:18:08.820Z,24.93
2018-06-10T06:20:40.632Z,24.98
2018-06-10T06:23:11.407Z,24.86
2018-06-10T06:25:44.754Z,24.87
2018-06-10T06:28:17.627Z,24.81
2018-06-10T06:30:51.941Z,24.37
2018-06-10T06:33:24.686Z,25.09
2018-06-10T06:35:56.763Z,25.17
2018-06-10T06:38:27.916Z,25.20
2018-06-10T06:40:59.062Z,25.15
2018-06-10T06:43:29.969Z,24.89
2018-06-10T06:46:00.698Z,24.69
2018-06-10T06:48:32.513Z,24.71
2018-06-10T06:51:03.751Z,24.81
2018-06-10T06:53:35.454Z,25.14
2018-06-10T06:56:07.912Z,25.19
2018-06-10T06:58:40.329Z,25.14
2018-06-10T07:01:11.671Z,25.21
2018-06-10T07:03:43.354Z,25.25
2018-06-10T07:06:27.615Z,25.44
2018-06-10T07:08:59.733Z,25.45
2018-06-10T07:11:31.615Z,25.48
2018-06-10T07:14:02.090Z,25.59
2018-06-10T07:16:34.729Z,25.62
2018-06-10T07:19:05.491Z,25.47
2018-06-10T07:21:37.381Z,25.19
2018-06-10T07:24:08.636Z,25.21
2018-06-10T07:26:39.217Z,25.36
2018-06-10T07:29:12.895Z,25.33
2018-06-10T07:31:46.031Z,25.41
2018-06-10T07:34:21.725Z,25.40
2018-06-10T07:36:54.821Z,25.16
2018-06-10T07:39:26.369Z,25.08
2018-06-10T07:42:06.867Z,25.09
2018-06-10T07:44:40.494Z,24.93
2018-06-10T07:47:12.129Z,24.86
2018-06-10T07:49:44.324Z,24.81
2018-06-10T07:52:15.865Z,24.71
2018-06-10T07:54:46.757Z,24.59
2018-06-10T07:57:19.843Z,24.44
2018-06-10T07:59:53.339Z,24.45
2018-06-10T08:02:25.948Z,24.38
2018-06-10T08:04:58.346Z,24.20
2018-06-10T08:07:29.709Z,24.27
2018-06-10T08:10:02.174Z,24.46
2018-06-10T08:12:33.134Z,24.59
2018-06-10T08:15:08.569Z,24.69
2018-06-10T08:17:39.699Z,24.44
2018-06-10T08:20:10.300Z,24.52
2018-06-10T08:22:40.587Z,24.55
2018-06-10T08:25:17.846Z,25.11
2018-06-10T08:27:49.237Z,25.10
2018-06-10T08:30:22.459Z,25.46
2018-06-10T08:32:52.834Z,25.80
2018-06-10T08:35:27.357Z,25.73
2018-06-10T08:37:57.762Z,26.09
2018-06-10T08:40:28.061Z,26.22
2018-06-10T08:42:59.648Z,26.13
2018-06-10T08:45:30.281Z,26.11
2018-06-10T08:48:00.761Z,26.26
2018-06-10T08:50:31.042Z,26.41
2018-06-10T08:53:03.864Z,26.66
2018-06-10T08:55:35.404Z,27.03
2018-06-10T08:58:06.834Z,27.35
2018-06-10T09:00:37.524Z,27.42
2018-06-10T09:03:10.630Z,27.75
2018-06-10T09:05:41.335Z,27.63
2018-06-10T09:08:14.571Z,27.85
2018-06-10T09:10:49.837Z,27.92
2018-06-10T09:13:20.298Z,27.83
2018-06-10T09:15:53.270Z,27.75
2018-06-10T09:18:40.099Z,27.56
2018-06-10T09:21:10.580Z,27.65
2018-06-10T09:23:41.694Z,27.81
2018-06-10T09:26:14.761Z,27.98
2018-06-10T09:28:47.631Z,27.96
2018-06-10T09:31:25.712Z,28.18
2018-06-10T09:34:05.086Z,27.96
2018-06-10T09:36:39.454Z,27.64
2018-06-10T09:39:11.422Z,27.81
2018-06-10T09:41:43.742Z,27.77
2018-06-10T09:44:18.439Z,27.46
2018-06-10T09:46:50.352Z,27.65
2018-06-10T09:49:21.304Z,27.70
2018-06-10T09:54:29.787Z,27.47
2018-06-10T09:57:04.285Z,27.36
2018-06-10T09:59:36.782Z,27.23
2018-06-10T10:02:10.078Z,27.35
2018-06-10T10:04:40.418Z,27.13
2018-06-10T10:07:11.650Z,27.36
2018-06-10T10:09:42.708Z,27.24
2018-06-10T10:12:19.339Z,26.87
2018-06-10T10:14:49.905Z,26.84
2018-06-10T10:17:20.338Z,27.16
2018-06-10T10:19:51.978Z,27.45
2018-06-10T10:22:22.650Z,27.59
2018-06-10T10:24:57.073Z,27.79
2018-06-10T10:27:28.521Z,27.82
2018-06-10T10:33:03.931Z,28.42
2018-06-10T10:35:38.388Z,28.85
2018-06-10T10:38:09.850Z,29.22
2018-06-10T10:40:45.900Z,29.44
2018-06-10T10:43:19.231Z,30.19
2018-06-10T10:45:51.605Z,30.11
2018-06-10T10:48:22.443Z,30.19
2018-06-10T10:50:58.119Z,30.31
2018-06-10T10:53:30.186Z,29.96
2018-06-10T10:56:03.600Z,30.01
2018-06-10T10:58:44.465Z,29.97
2018-06-10T11:01:22.545Z,29.93
2018-06-10T11:03:54.309Z,29.77
2018-06-10T11:06:25.521Z,29.89
2018-06-10T11:08:58.517Z,30.18
2018-06-10T11:11:29.623Z,30.17
2018-06-10T11:14:01.473Z,30.65
2018-06-10T11:16:33.987Z,30.43
2018-06-10T11:19:09.674Z,30.45
2018-06-10T11:21:41.853Z,30.04
2018-06-10T11:24:14.536Z,30.03
2018-06-10T11:26:46.592Z,29.65
2018-06-10T11:29:21.187Z,29.91
2018-06-10T11:31:57.593Z,29.67
2018-06-10T11:34:33.616Z,30.13
2018-06-10T11:37:04.276Z,30.91
2018-06-10T11:39:41.432Z,30.98
2018-06-10T11:42:13.657Z,31.86
2018-06-10T11:44:58.543Z,32.33
2018-06-10T11:47:39.642Z,32.51
2018-06-10T11:50:15.605Z,32.35
2018-06-10T11:52:48.383Z,32.35
2018-06-10T11:55:22.933Z,32.21
2018-06-10T11:57:55.330Z,32.83
2018-06-10T12:00:26.291Z,33.06
2018-06-10T12:03:10.321Z,33.02
2018-06-10T12:05:47.092Z,33.16
2018-06-10T12:08:20.426Z,33.80
2018-06-10T12:10:51.847Z,34.00
2018-06-10T12:13:25.638Z,34.41
2018-06-10T12:15:59.286Z,33.99
2018-06-10T12:18:35.610Z,33.22
2018-06-10T12:21:07.181Z,33.00
2018-06-10T12:23:43.492Z,33.50
2018-06-10T12:26:25.120Z,32.50
2018-06-10T12:28:56.345Z,32.08
2018-06-10T12:31:30.532Z,31.72
2018-06-10T12:34:01.844Z,32.73
2018-06-10T12:36:37.493Z,33.39
2018-06-10T12:39:10.370Z,33.25
2018-06-10T12:41:43.976Z,33.11
2018-06-10T12:44:17.715Z,32.69
2018-06-10T12:46:53.749Z,32.29
2018-06-10T12:49:28.887Z,32.29
2018-06-10T12:52:00.250Z,32.82
2018-06-10T12:54:33.212Z,33.43
2018-06-10T12:57:12.108Z,33.37
2018-06-10T12:59:58.911Z,32.97
2018-06-10T13:02:38.035Z,33.25
2018-06-10T13:05:13.101Z,33.34
2018-06-10T13:07:47.834Z,33.13
2018-06-10T13:10:22.133Z,33.14
2018-06-10T13:12:55.704Z,33.39
2018-06-10T13:15:28.253Z,33.27
2018-06-10T13:17:58.697Z,33.28
2018-06-10T13:20:37.664Z,33.81
2018-06-10T13:23:11.461Z,33.53
2018-06-10T13:25:49.824Z,33.66
2018-06-10T13:28:33.449Z,33.48
2018-06-10T13:34:07.830Z,33.55
2018-06-10T13:36:55.443Z,33.26
2018-06-10T13:39:35.703Z,33.06
2018-06-10T13:42:09.580Z,33.41
2018-06-10T13:44:54.365Z,32.92
2018-06-10T13:47:33.593Z,32.43
2018-06-10T13:50:07.427Z,32.14
2018-06-10T13:52:41.683Z,32.14
2018-06-10T13:55:14.539Z,32.95
2018-06-10T13:57:46.603Z,33.10
2018-06-10T14:00:24.680Z,32.83
2018-06-10T14:02:57.058Z,32.59
2018-06-10T14:05:32.344Z,32.11
2018-06-10T14:08:24.687Z,31.88
2018-06-10T14:10:57.209Z,31.90
2018-06-10T14:13:34.670Z,31.85
2018-06-10T14:16:07.006Z,31.32
2018-06-10T14:18:43.263Z,31.78
2018-06-10T14:21:15.724Z,31.76
2018-06-10T14:23:48.026Z,31.79
2018-06-10T14:26:27.109Z,32.07
2018-06-10T14:29:00.479Z,32.10
2018-06-10T14:31:35.610Z,32.09
2018-06-10T14:34:10.201Z,31.83
2018-06-10T14:36:44.181Z,31.50
2018-06-10T14:39:31.329Z,31.43
2018-06-10T14:42:05.580Z,31.28
2018-06-10T14:44:44.726Z,31.55
2018-06-10T14:47:20.236Z,31.33
2018-06-10T14:49:56.098Z,31.38
2018-06-10T14:52:37.270Z,31.72
2018-06-10T14:55:35.554Z,31.91
2018-06-10T14:58:11.976Z,32.27
2018-06-10T15:00:50.278Z,32.20
2018-06-10T15:03:32.336Z,32.60
2018-06-10T15:06:12.654Z,33.00
2018-06-10T15:08:49.634Z,32.68
2018-06-10T15:11:21.750Z,32.35
2018-06-10T15:13:56.062Z,32.72
2018-06-10T15:16:35.893Z,32.96
2018-06-10T15:19:13.566Z,32.85
2018-06-10T15:21:53.576Z,32.65
2018-06-10T15:24:30.800Z,32.29
2018-06-10T15:27:04.413Z,32.26
2018-06-10T15:29:36.473Z,32.22
2018-06-10T15:32:19.768Z,32.08
2018-06-10T15:34:57.433Z,32.02
2018-06-10T15:37:36.386Z,31.80
2018-06-10T15:40:06.998Z,31.52
2018-06-10T15:42:39.090Z,31.41
2018-06-10T15:45:13.454Z,31.24
2018-06-10T15:47:53.577Z,31.06
2018-06-10T15:50:30.796Z,30.72
2018-06-10T15:53:06.659Z,30.80
2018-06-10T15:55:39.159Z,30.89
2018-06-10T15:58:27.915Z,30.81
2018-06-10T16:01:03.028Z,30.47
2018-06-10T16:03:35.682Z,30.35
2018-06-10T16:06:08.333Z,30.60
2018-06-10T16:08:50.657Z,30.76
2018-06-10T16:11:24.883Z,30.72
2018-06-10T16:13:57.810Z,30.81
2018-06-10T16:16:32.060Z,30.81
2018-06-10T16:19:05.707Z,30.69
2018-06-10T16:24:22.298Z,30.40
2018-06-10T16:26:58.274Z,30.39
2018-06-10T16:29:49.380Z,30.45
2018-06-10T16:32:20.944Z,30.42
2018-06-10T16:34:58.679Z,30.18
2018-06-10T16:37:29.316Z,29.84
2018-06-10T16:40:04.932Z,29.71
2018-06-10T16:42:42.641Z,29.64
2018-06-10T16:45:17.119Z,29.71
2018-06-10T16:47:50.128Z,29.54
2018-06-10T16:50:23.638Z,29.46
2018-06-10T16:52:56.889Z,29.52
2018-06-10T16:55:33.686Z,29.45
2018-06-10T16:58:22.165Z,29.58
2018-06-10T17:03:59.591Z,29.34
2018-06-10T17:06:32.474Z,29.45
2018-06-10T17:09:06.590Z,29.36
2018-06-10T17:11:39.233Z,29.13
2018-06-10T17:14:14.492Z,28.81
2018-06-10T17:19:31.326Z,28.74
2018-06-10T17:22:03.732Z,28.70
2018-06-10T17:24:39.674Z,28.72
2018-06-10T17:27:11.252Z,28.69
2018-06-10T17:29:59.078Z,28.71
2018-06-10T17:32:40.457Z,28.74
2018-06-10T17:35:13.334Z,28.50
2018-06-10T17:37:49.750Z,28.40
2018-06-10T17:40:22.305Z,28.05
2018-06-10T17:42:55.448Z,28.15
2018-06-10T17:45:34.358Z,28.20
2018-06-10T17:48:16.333Z,28.03
2018-06-10T17:51:01.086Z,28.14
2018-06-10T17:53:48.298Z,28.28
2018-06-10T17:56:26.677Z,28.28
2018-06-10T17:59:04.678Z,28.23
2018-06-10T18:01:42.748Z,28.09
2018-06-10T18:04:19.819Z,28.03
2018-06-10T18:06:55.375Z,28.09
2018-06-10T18:09:28.380Z,28.08
2018-06-10T18:12:04.214Z,28.03
2018-06-10T18:17:13.049Z,27.75
2018-06-10T18:19:55.996Z,27.84
2018-06-10T18:22:28.746Z,27.90
2018-06-10T18:25:01.452Z,27.84
2018-06-10T18:27:35.731Z,27.74
2018-06-10T18:30:14.426Z,27.70
2018-06-10T18:32:59.493Z,27.68
2018-06-10T18:35:33.312Z,27.81
2018-06-10T18:38:08.672Z,27.86
2018-06-10T18:40:49.266Z,27.89
2018-06-10T18:43:24.620Z,27.78
2018-06-10T18:45:59.816Z,27.67
2018-06-10T18:48:36.177Z,27.62
2018-06-10T18:51:09.895Z,27.60
2018-06-10T18:53:41.162Z,27.71
2018-06-10T18:56:13.687Z,27.78
2018-06-10T18:58:53.493Z,27.83
2018-06-10T19:01:38.306Z,27.78
2018-06-10T19:04:09.621Z,27.67
2018-06-10T19:06:41.452Z,27.65
2018-06-10T19:09:16.109Z,27.59
2018-06-10T19:11:46.475Z,27.38
2018-06-10T19:14:17.303Z,27.32
2018-06-10T19:19:26.625Z,27.04
2018-06-10T19:22:00.513Z,27.05
2018-06-10T19:24:35.233Z,27.01
2018-06-10T19:27:15.755Z,26.91
2018-06-10T19:32:51.233Z,26.80
2018-06-10T19:35:32.770Z,26.82
2018-06-10T19:38:08.187Z,26.87
2018-06-10T19:40:42.322Z,26.76
2018-06-10T19:43:16.581Z,26.70
2018-06-10T19:45:48.228Z,26.65
2018-06-10T19:48:24.366Z,26.58
2018-06-10T19:50:58.049Z,26.63
2018-06-10T19:53:31.247Z,26.67
2018-06-10T19:56:02.461Z,26.61
2018-06-10T19:58:35.738Z,26.45
2018-06-10T20:01:10.414Z,26.48
2018-06-10T20:03:41.701Z,26.51
2018-06-10T20:06:14.194Z,26.58
2018-06-10T20:08:46.586Z,26.51
2018-06-10T20:11:19.748Z,26.51
2018-06-10T20:13:51.003Z,26.41
2018-06-10T20:16:24.095Z,26.25
2018-06-10T20:18:57.799Z,26.15
2018-06-10T20:21:31.277Z,26.26
2018-06-10T20:24:05.066Z,26.22
2018-06-10T20:26:35.652Z,26.18
2018-06-10T20:29:07.689Z,26.15
2018-06-10T20:31:41.355Z,26.11
2018-06-10T20:36:50.635Z,25.87
2018-06-10T20:39:23.384Z,25.75
2018-06-10T20:42:03.153Z,25.70
2018-06-10T20:44:38.848Z,25.68
2018-06-10T20:47:17.548Z,25.67
2018-06-10T20:49:55.894Z,25.75
2018-06-10T20:52:29.473Z,25.71
2018-06-10T20:55:15.921Z,25.64
2018-06-10T20:57:52.665Z,25.61
2018-06-10T21:00:25.752Z,25.49
2018-06-10T21:02:57.191Z,25.41
2018-06-10T21:05:30.280Z,25.35
2018-06-10T21:50:09.688Z,23.41
2018-06-10T21:55:24.717Z,23.57
2018-06-10T21:57:55.795Z,23.59
2018-06-10T22:00:30.047Z,23.56
2018-06-10T22:03:03.131Z,23.58
2018-06-10T22:05:37.389Z,23.60
2018-06-10T22:08:13.477Z,23.58
2018-06-10T22:10:50.476Z,23.52
2018-06-10T22:13:23.938Z,23.47
2018-06-10T22:15:57.878Z,22.85
2018-06-10T22:18:30.638Z,23.36
2018-06-10T22:21:04.070Z,23.33
2018-06-10T22:23:36.683Z,23.25
2018-06-10T22:26:07.410Z,23.24
2018-06-10T22:28:41.392Z,23.18
2018-06-10T22:31:20.207Z,23.13
2018-06-10T22:33:52.659Z,23.11
2018-06-10T22:36:24.783Z,23.05
2018-06-10T22:38:56.309Z,23.02
2018-06-10T22:41:29.309Z,22.99
2018-06-10T22:46:36.298Z,22.97
2018-06-10T22:49:07.660Z,22.96
2018-06-10T22:51:39.730Z,22.87
2018-06-10T22:54:54.959Z,22.83
2018-06-10T22:57:27.342Z,22.70
2018-06-10T23:00:05.210Z,22.63
2018-06-10T23:02:36.189Z,22.60
2018-06-10T23:05:06.795Z,22.56
2018-06-10T23:07:37.466Z,22.56
2018-06-10T23:10:07.725Z,22.56
2018-06-10T23:12:38.353Z,22.48
2018-06-10T23:15:09.213Z,22.40
2018-06-10T23:17:45.393Z,22.36
2018-06-10T23:20:15.998Z,22.37
2018-06-10T23:22:49.470Z,22.23
2018-06-10T23:25:20.543Z,22.11
2018-06-10T23:27:51.094Z,22.10
2018-06-10T23:30:22.284Z,22.13
2018-06-10T23:32:52.731Z,22.10
2018-06-10T23:35:26.383Z,22.02
2018-06-10T23:37:59.292Z,21.93
2018-06-10T23:40:29.670Z,21.82
2018-06-10T23:43:03.234Z,21.86
2018-06-10T23:45:36.462Z,21.81
2018-06-10T23:48:07.714Z,21.70
2018-06-10T23:50:39.734Z,21.66
2018-06-10T23:53:10.264Z,21.70
2018-06-10T23:55:40.943Z,21.79
2018-06-10T23:58:15.526Z,21.67
